createdAt,value
2024-04-18T00:00:36.522Z,28.97
2024-04-18T00:01:45.250Z,28.98
2024-04-18T00:02:50.896Z,28.97
2024-04-18T00:03:56.736Z,28.99
2024-04-18T00:05:02.483Z,28.99
2024-04-18T00:06:14.272Z,29.01
2024-04-18T00:07:19.981Z,29.03
2024-04-18T00:08:25.635Z,29.04
2024-04-18T00:09:31.282Z,29.06
2024-04-18T00:10:39.908Z,29.06
2024-04-18T00:11:47.541Z,29.08
2024-04-18T00:12:53.825Z,29.11
2024-04-18T00:14:02.472Z,29.11
2024-04-18T00:15:10.795Z,29.12
2024-04-18T00:16:16.430Z,29.14
2024-04-18T00:17:22.133Z,29.16
2024-04-18T00:18:30.820Z,29.18
2024-04-18T00:19:36.576Z,29.19
2024-04-18T00:20:42.214Z,29.21
2024-04-18T00:21:53.763Z,29.23
2024-04-18T00:22:59.333Z,29.23
2024-04-18T00:24:04.912Z,29.24
2024-04-18T00:25:13.798Z,29.27
2024-04-18T00:26:19.406Z,29.28
2024-04-18T00:27:25.015Z,29.31
2024-04-18T00:28:33.549Z,29.31
2024-04-18T00:29:40.626Z,29.34
2024-04-18T00:30:46.710Z,29.35
2024-04-18T00:31:52.487Z,29.38
2024-04-18T00:33:01.070Z,29.38
2024-04-18T00:34:07.742Z,29.39
2024-04-18T00:35:13.336Z,29.41
2024-04-18T00:36:19.074Z,29.41
2024-04-18T00:37:30.613Z,29.44
2024-04-18T00:38:36.240Z,29.46
2024-04-18T00:39:41.916Z,29.47
2024-04-18T00:40:51.145Z,29.48
2024-04-18T00:41:56.774Z,29.50
2024-04-18T00:43:04.023Z,29.51
2024-04-18T00:44:12.563Z,29.52
2024-04-18T00:45:18.269Z,29.52
2024-04-18T00:46:27.455Z,29.54
2024-04-18T00:47:33.197Z,29.56
2024-04-18T00:48:42.081Z,29.59
2024-04-18T00:49:47.785Z,29.61
2024-04-18T00:50:53.895Z,29.62
2024-04-18T00:52:00.200Z,29.65
2024-04-18T00:53:11.999Z,29.67
2024-04-18T00:54:17.865Z,29.68
2024-04-18T00:55:23.690Z,29.70
2024-04-18T00:56:32.411Z,29.71
2024-04-18T00:57:38.816Z,29.75
2024-04-18T00:58:45.317Z,29.77
2024-04-18T00:59:54.735Z,29.78
2024-04-18T01:01:00.626Z,29.79
2024-04-18T01:02:06.410Z,29.80
2024-04-18T01:03:12.038Z,29.81
2024-04-18T01:04:21.073Z,29.83
2024-04-18T01:05:26.709Z,29.84
2024-04-18T01:06:32.630Z,29.86
2024-04-18T01:07:38.392Z,29.89
2024-04-18T01:08:50.022Z,29.90
2024-04-18T01:09:55.660Z,29.94
2024-04-18T01:11:01.254Z,29.95
2024-04-18T01:12:10.313Z,29.95
2024-04-18T01:13:16.052Z,29.98
2024-04-18T01:14:21.653Z,29.98
2024-04-18T01:15:27.343Z,29.99
2024-04-18T01:16:35.923Z,30.00
2024-04-18T01:17:41.607Z,30.01
2024-04-18T01:18:47.395Z,30.02
2024-04-18T01:19:56.198Z,30.02
2024-04-18T01:21:01.953Z,30.05
2024-04-18T01:22:07.879Z,30.07
2024-04-18T01:23:13.524Z,30.10
2024-04-18T01:24:25.641Z,30.11
2024-04-18T01:25:31.244Z,30.12
2024-04-18T01:26:39.861Z,30.14
2024-04-18T01:27:48.389Z,30.18
2024-04-18T01:28:54.103Z,30.19
2024-04-18T01:30:00.865Z,30.22
2024-04-18T01:31:06.379Z,30.25
2024-04-18T01:32:14.924Z,30.27
2024-04-18T01:33:22.584Z,30.29
2024-04-18T01:34:29.886Z,30.31
2024-04-18T01:35:38.437Z,30.32
2024-04-18T01:36:44.012Z,30.34
2024-04-18T01:37:50.057Z,30.37
2024-04-18T01:38:58.582Z,30.38
2024-04-18T01:40:04.183Z,30.41
2024-04-18T01:41:09.716Z,30.42
2024-04-18T01:42:18.174Z,30.47
2024-04-18T01:43:26.627Z,30.49
2024-04-18T01:44:32.061Z,30.53
2024-04-18T01:45:37.688Z,30.55
2024-04-18T01:46:46.163Z,30.58
2024-04-18T01:47:51.709Z,30.61
2024-04-18T01:48:57.178Z,30.63
2024-04-18T01:50:02.560Z,30.65
2024-04-18T01:51:11.203Z,30.69
2024-04-18T01:52:16.690Z,30.72
2024-04-18T01:53:22.168Z,30.74
2024-04-18T01:54:30.618Z,30.78
2024-04-18T01:55:36.081Z,30.81
2024-04-18T01:56:41.498Z,30.84
2024-04-18T01:57:52.920Z,30.86
2024-04-18T01:58:58.479Z,30.89
2024-04-18T02:00:04.056Z,30.93
2024-04-18T02:01:09.653Z,30.94
2024-04-18T02:02:18.092Z,30.99
2024-04-18T02:03:23.736Z,31.01
2024-04-18T02:04:29.355Z,31.03
2024-04-18T02:05:36.279Z,31.06
2024-04-18T02:06:44.844Z,31.09
2024-04-18T02:07:50.513Z,31.12
2024-04-18T02:08:56.039Z,31.14
2024-04-18T02:10:04.514Z,31.19
2024-04-18T02:11:10.094Z,31.22
2024-04-18T02:12:15.673Z,31.25
2024-04-18T02:13:27.193Z,31.28
2024-04-18T02:14:32.703Z,31.31
2024-04-18T02:15:38.542Z,31.32
2024-04-18T02:16:44.072Z,31.35
2024-04-18T02:17:52.734Z,31.38
2024-04-18T02:18:58.415Z,31.42
2024-04-18T02:20:03.981Z,31.46
2024-04-18T02:21:12.568Z,31.49
2024-04-18T02:22:18.160Z,31.54
2024-04-18T02:23:25.010Z,31.56
2024-04-18T02:24:30.619Z,31.61
2024-04-18T02:25:40.475Z,31.65
2024-04-18T02:26:46.526Z,31.69
2024-04-18T02:27:51.993Z,31.72
2024-04-18T02:29:03.579Z,31.75
2024-04-18T02:30:10.205Z,31.78
2024-04-18T02:31:15.988Z,31.82
2024-04-18T02:32:24.652Z,31.85
2024-04-18T02:33:30.389Z,31.91
2024-04-18T02:34:35.898Z,31.92
2024-04-18T02:35:41.429Z,31.95
2024-04-18T02:36:49.987Z,31.97
2024-04-18T02:37:55.534Z,32.01
2024-04-18T02:39:01.074Z,32.04
2024-04-18T02:40:09.712Z,32.06
2024-04-18T02:41:15.314Z,32.09
2024-04-18T02:42:20.862Z,32.10
2024-04-18T02:43:26.415Z,32.14
2024-04-18T02:44:37.862Z,32.18
2024-04-18T02:45:44.077Z,32.22
2024-04-18T02:46:49.754Z,32.26
2024-04-18T02:47:55.386Z,32.30
2024-04-18T02:49:04.088Z,32.34
2024-04-18T02:50:10.486Z,32.37
2024-04-18T02:51:16.075Z,32.41
2024-04-18T02:52:25.935Z,32.42
2024-04-18T02:53:31.480Z,32.44
2024-04-18T02:54:37.020Z,32.47
2024-04-18T02:55:42.539Z,32.48
2024-04-18T02:56:51.070Z,32.53
2024-04-18T02:57:56.889Z,32.57
2024-04-18T02:59:02.439Z,32.58
2024-04-18T03:00:14.903Z,32.60
2024-04-18T03:01:20.529Z,32.62
2024-04-18T03:02:26.456Z,32.66
2024-04-18T03:03:32.115Z,32.66
2024-04-18T03:04:40.513Z,32.67
2024-04-18T03:05:46.054Z,32.71
2024-04-18T03:06:51.992Z,32.72
2024-04-18T03:07:58.963Z,32.74
2024-04-18T03:09:07.462Z,32.76
2024-04-18T03:10:12.971Z,32.81
2024-04-18T03:11:18.594Z,32.82
2024-04-18T03:12:27.121Z,32.85
2024-04-18T03:13:32.621Z,32.90
2024-04-18T03:14:38.156Z,32.94
2024-04-18T03:15:53.642Z,32.95
2024-04-18T03:16:59.146Z,32.97
2024-04-18T03:18:04.774Z,33.01
2024-04-18T03:19:17.975Z,33.06
2024-04-18T03:20:23.691Z,33.08
2024-04-18T03:21:29.173Z,33.11
2024-04-18T03:22:38.012Z,33.14
2024-04-18T03:23:43.662Z,33.16
2024-04-18T03:24:49.242Z,33.17
2024-04-18T03:25:54.893Z,33.20
2024-04-18T03:27:03.308Z,33.20
2024-04-18T03:28:09.492Z,33.20
2024-04-18T03:29:15.765Z,33.19
2024-04-18T03:30:21.317Z,33.22
2024-04-18T03:31:33.241Z,33.24
2024-04-18T03:32:38.923Z,33.28
2024-04-18T03:33:44.412Z,33.30
2024-04-18T03:34:55.308Z,33.30
2024-04-18T03:36:00.831Z,33.31
2024-04-18T03:37:09.432Z,33.32
2024-04-18T03:38:14.968Z,33.32
2024-04-18T03:39:23.572Z,33.33
2024-04-18T03:40:29.078Z,33.35
2024-04-18T03:41:34.647Z,33.36
2024-04-18T03:42:43.142Z,33.37
2024-04-18T03:43:48.846Z,33.38
2024-04-18T03:44:54.499Z,33.38
2024-04-18T03:46:04.918Z,33.38
2024-04-18T03:47:13.382Z,33.40
2024-04-18T03:48:22.069Z,33.41
2024-04-18T03:49:27.545Z,33.43
2024-04-18T03:50:33.043Z,33.45
2024-04-18T03:51:41.692Z,33.49
2024-04-18T03:52:47.442Z,33.55
2024-04-18T03:53:54.008Z,33.57
2024-04-18T03:55:02.302Z,33.59
2024-04-18T03:56:11.630Z,33.60
2024-04-18T03:57:17.159Z,33.61
2024-04-18T03:58:22.626Z,33.61
2024-04-18T03:59:28.132Z,33.63
2024-04-18T04:00:37.680Z,33.66
2024-04-18T04:01:43.979Z,33.70
2024-04-18T04:02:52.421Z,33.73
2024-04-18T04:04:01.022Z,33.74
2024-04-18T04:05:06.863Z,33.76
2024-04-18T04:06:12.406Z,33.78
2024-04-18T04:07:17.989Z,33.80
2024-04-18T04:08:26.365Z,33.82
2024-04-18T04:09:31.896Z,33.83
2024-04-18T04:10:37.503Z,33.86
2024-04-18T04:11:45.925Z,33.89
2024-04-18T04:12:51.600Z,33.91
2024-04-18T04:14:00.294Z,33.95
2024-04-18T04:15:06.426Z,34.01
2024-04-18T04:16:15.042Z,34.02
2024-04-18T04:17:20.586Z,34.05
2024-04-18T04:18:29.106Z,34.06
2024-04-18T04:19:37.656Z,34.08
2024-04-18T04:20:43.645Z,34.11
2024-04-18T04:21:49.262Z,34.12
2024-04-18T04:22:57.767Z,34.13
2024-04-18T04:24:03.216Z,34.15
2024-04-18T04:25:08.944Z,34.16
2024-04-18T04:26:17.387Z,34.16
2024-04-18T04:27:22.904Z,34.16
2024-04-18T04:28:28.376Z,34.17
2024-04-18T04:29:36.713Z,34.19
2024-04-18T04:30:42.164Z,34.20
2024-04-18T04:31:47.686Z,34.22
2024-04-18T04:32:56.235Z,34.23
2024-04-18T04:34:04.708Z,34.24
2024-04-18T04:35:10.273Z,34.25
2024-04-18T04:36:15.730Z,34.28
2024-04-18T04:37:24.507Z,34.31
2024-04-18T04:38:30.106Z,34.32
2024-04-18T04:39:35.543Z,34.34
2024-04-18T04:40:43.964Z,34.36
2024-04-18T04:41:49.647Z,34.37
2024-04-18T04:42:57.256Z,34.39
2024-04-18T04:44:07.259Z,34.43
2024-04-18T04:45:12.669Z,34.44
2024-04-18T04:46:18.156Z,34.45
2024-04-18T04:47:23.751Z,34.47
2024-04-18T04:48:33.986Z,34.48
2024-04-18T04:49:43.864Z,34.51
2024-04-18T04:50:59.235Z,34.53
2024-04-18T04:52:07.743Z,34.54
2024-04-18T04:53:13.218Z,34.56
2024-04-18T04:54:18.890Z,34.58
2024-04-18T04:55:27.494Z,34.59
2024-04-18T04:56:32.942Z,34.60
2024-04-18T04:57:38.459Z,34.60
2024-04-18T04:58:46.956Z,34.60
2024-04-18T04:59:52.441Z,34.58
2024-04-18T05:00:59.514Z,34.58
2024-04-18T05:02:05.213Z,34.56
2024-04-18T05:03:13.827Z,34.57
2024-04-18T05:04:19.517Z,34.57
2024-04-18T05:05:28.194Z,34.58
2024-04-18T05:06:36.786Z,34.59
2024-04-18T05:07:42.338Z,34.61
2024-04-18T05:08:49.474Z,34.65
2024-04-18T05:09:55.086Z,34.69
2024-04-18T05:11:03.846Z,34.72
2024-04-18T05:12:09.757Z,34.74
2024-04-18T05:13:16.034Z,34.75
2024-04-18T05:14:24.846Z,34.78
2024-04-18T05:15:33.506Z,34.80
2024-04-18T05:16:39.156Z,34.82
2024-04-18T05:17:44.844Z,34.84
2024-04-18T05:18:54.188Z,34.84
2024-04-18T05:20:00.071Z,34.86
2024-04-18T05:21:08.843Z,34.88
2024-04-18T05:22:17.330Z,34.90
2024-04-18T05:23:22.930Z,34.90
2024-04-18T05:24:28.579Z,34.94
2024-04-18T05:25:37.152Z,34.95
2024-04-18T05:26:42.727Z,34.99
2024-04-18T05:27:57.932Z,35.01
2024-04-18T05:29:21.677Z,35.03
2024-04-18T05:30:45.288Z,35.06
2024-04-18T05:31:54.279Z,35.10
2024-04-18T05:32:59.958Z,35.11
2024-04-18T05:34:08.659Z,35.16
2024-04-18T05:35:14.349Z,35.18
2024-04-18T05:36:25.961Z,35.20
2024-04-18T05:37:31.482Z,35.23
2024-04-18T05:38:36.996Z,35.22
2024-04-18T05:39:45.628Z,35.22
2024-04-18T05:40:51.648Z,35.25
2024-04-18T05:42:00.207Z,35.26
2024-04-18T05:43:05.764Z,35.27
2024-04-18T05:44:14.246Z,35.29
2024-04-18T05:45:19.932Z,35.33
2024-04-18T05:46:25.481Z,35.37
2024-04-18T05:47:34.322Z,35.42
2024-04-18T05:48:39.988Z,35.46
2024-04-18T05:49:48.756Z,35.49
2024-04-18T05:50:54.295Z,35.51
2024-04-18T05:52:05.864Z,35.55
2024-04-18T05:53:11.448Z,35.59
2024-04-18T05:54:20.260Z,35.63
2024-04-18T05:55:26.486Z,35.66
2024-04-18T05:56:35.162Z,35.69
2024-04-18T05:57:40.837Z,35.73
2024-04-18T05:58:51.375Z,35.73
2024-04-18T05:59:56.899Z,35.75
2024-04-18T06:01:07.103Z,35.75
2024-04-18T06:02:13.716Z,35.78
2024-04-18T06:03:19.400Z,35.79
2024-04-18T06:04:28.084Z,35.80
2024-04-18T06:05:33.622Z,35.81
2024-04-18T06:06:42.275Z,35.83
2024-04-18T06:07:50.808Z,35.84
2024-04-18T06:08:59.397Z,35.85
2024-04-18T06:10:05.141Z,35.87
2024-04-18T06:11:13.639Z,35.91
2024-04-18T06:12:20.083Z,35.96
2024-04-18T06:13:29.927Z,35.99
2024-04-18T06:14:35.474Z,36.01
2024-04-18T06:15:45.352Z,36.02
2024-04-18T06:16:54.854Z,36.04
2024-04-18T06:18:00.511Z,36.04
2024-04-18T06:19:09.197Z,36.05
2024-04-18T06:20:14.746Z,36.05
2024-04-18T06:21:23.278Z,36.08
2024-04-18T06:22:28.820Z,36.14
2024-04-18T06:23:40.264Z,36.18
2024-04-18T06:24:48.251Z,36.23
2024-04-18T06:25:59.334Z,36.23
2024-04-18T06:27:04.881Z,36.26
2024-04-18T06:28:15.581Z,36.28
2024-04-18T06:29:21.138Z,36.29
2024-04-18T06:30:26.770Z,36.31
2024-04-18T06:31:35.314Z,36.34
2024-04-18T06:32:41.104Z,36.37
2024-04-18T06:33:49.899Z,36.40
2024-04-18T06:34:55.716Z,36.45
2024-04-18T06:36:04.814Z,36.51
2024-04-18T06:37:11.735Z,36.57
2024-04-18T06:38:20.181Z,36.64
2024-04-18T06:39:28.862Z,36.71
2024-04-18T06:40:34.486Z,36.77
2024-04-18T06:41:43.093Z,36.84
2024-04-18T06:42:48.796Z,36.89
2024-04-18T06:43:57.438Z,36.95
2024-04-18T06:45:02.917Z,37.02
2024-04-18T06:46:11.655Z,37.07
2024-04-18T06:47:17.384Z,37.13
2024-04-18T06:48:25.979Z,37.15
2024-04-18T06:49:31.612Z,37.18
2024-04-18T06:50:40.216Z,37.21
2024-04-18T06:51:47.728Z,37.24
2024-04-18T06:52:56.363Z,37.29
2024-04-18T06:54:02.593Z,37.33
2024-04-18T06:55:14.265Z,37.35
2024-04-18T06:56:22.861Z,37.38
2024-04-18T06:57:31.695Z,37.41
2024-04-18T06:58:37.278Z,37.47
2024-04-18T06:59:45.737Z,37.51
2024-04-18T07:00:52.135Z,37.55
2024-04-18T07:02:00.708Z,37.59
2024-04-18T07:03:06.471Z,37.64
2024-04-18T07:04:15.257Z,37.68
2024-04-18T07:05:20.778Z,37.73
2024-04-18T07:06:29.294Z,37.78
2024-04-18T07:07:34.738Z,37.82
2024-04-18T07:08:43.151Z,37.84
2024-04-18T07:09:49.927Z,37.87
2024-04-18T07:11:01.624Z,37.88
2024-04-18T07:12:07.588Z,37.91
2024-04-18T07:13:13.166Z,37.88
2024-04-18T07:14:21.610Z,37.89
2024-04-18T07:15:27.184Z,37.89
2024-04-18T07:16:35.581Z,37.89
2024-04-18T07:17:41.103Z,37.86
2024-04-18T07:18:49.767Z,37.83
2024-04-18T07:19:55.725Z,37.85
2024-04-18T07:21:04.235Z,37.85
2024-04-18T07:22:10.031Z,37.88
2024-04-18T07:23:18.442Z,37.91
2024-04-18T07:24:25.361Z,37.95
2024-04-18T07:25:34.027Z,37.98
2024-04-18T07:26:42.542Z,38.01
2024-04-18T07:27:51.134Z,38.04
2024-04-18T07:28:56.568Z,38.10
2024-04-18T07:30:05.035Z,38.12
2024-04-18T07:31:10.520Z,38.15
2024-04-18T07:32:18.970Z,38.18
2024-04-18T07:33:24.610Z,38.24
2024-04-18T07:34:33.188Z,38.28
2024-04-18T07:35:38.652Z,38.31
2024-04-18T07:36:47.226Z,38.34
2024-04-18T07:37:54.382Z,38.37
2024-04-18T07:39:02.820Z,38.39
2024-04-18T07:40:15.224Z,38.43
2024-04-18T07:41:23.659Z,38.47
2024-04-18T07:42:32.116Z,38.51
2024-04-18T07:43:40.539Z,38.50
2024-04-18T07:44:46.135Z,38.56
2024-04-18T07:45:54.875Z,38.61
2024-04-18T07:47:00.477Z,38.66
2024-04-18T07:48:09.215Z,38.70
2024-04-18T07:49:14.787Z,38.74
2024-04-18T07:50:23.254Z,38.78
2024-04-18T07:51:28.903Z,38.81
2024-04-18T07:52:34.386Z,38.85
2024-04-18T07:53:42.999Z,38.89
2024-04-18T07:54:49.058Z,38.93
2024-04-18T07:55:57.638Z,38.97
2024-04-18T07:57:04.427Z,39.03
2024-04-18T07:58:16.977Z,39.05
2024-04-18T07:59:23.885Z,39.11
2024-04-18T08:00:34.177Z,39.18
2024-04-18T08:01:42.426Z,39.21
2024-04-18T08:02:54.178Z,39.27
2024-04-18T08:04:17.388Z,39.32
2024-04-18T08:05:31.313Z,39.39
2024-04-18T08:06:42.239Z,39.44
2024-04-18T08:07:54.611Z,39.48
2024-04-18T08:09:05.997Z,39.53
2024-04-18T08:10:18.732Z,39.56
2024-04-18T08:11:53.522Z,39.49
2024-04-18T08:12:57.948Z,39.45
2024-04-18T08:14:11.902Z,39.44
2024-04-18T08:15:26.818Z,39.44
2024-04-18T08:16:49.261Z,39.40
2024-04-18T08:17:58.070Z,39.40
2024-04-18T08:19:03.687Z,39.40
2024-04-18T08:20:13.422Z,39.39
2024-04-18T08:21:19.134Z,39.38
2024-04-18T08:22:28.006Z,39.36
2024-04-18T08:23:33.553Z,39.36
2024-04-18T08:24:44.713Z,39.33
2024-04-18T08:25:50.242Z,39.29
2024-04-18T08:26:58.741Z,39.28
2024-04-18T08:28:04.258Z,39.25
2024-04-18T08:29:16.228Z,39.18
2024-04-18T08:30:22.437Z,39.16
2024-04-18T08:31:31.020Z,39.01
2024-04-18T08:32:36.577Z,38.84
2024-04-18T08:33:53.937Z,38.64
2024-04-18T08:35:07.957Z,38.53
2024-04-18T08:36:13.714Z,38.68
2024-04-18T08:37:22.858Z,38.78
2024-04-18T08:38:28.422Z,38.90
2024-04-18T08:39:36.886Z,38.95
2024-04-18T08:40:44.533Z,38.97
2024-04-18T08:41:53.041Z,39.00
2024-04-18T08:42:58.580Z,39.03
2024-04-18T08:44:08.069Z,39.10
2024-04-18T08:45:17.262Z,39.05
2024-04-18T08:46:26.206Z,38.82
2024-04-18T08:47:34.389Z,38.62
2024-04-18T08:48:45.133Z,38.37
2024-04-18T08:49:51.161Z,38.12
2024-04-18T08:51:00.054Z,37.91
2024-04-18T08:52:06.398Z,37.70
2024-04-18T08:53:17.254Z,37.51
2024-04-18T08:54:23.420Z,37.37
2024-04-18T08:55:32.322Z,37.29
2024-04-18T08:56:38.498Z,37.19
2024-04-18T08:57:53.402Z,37.09
2024-04-18T08:58:59.021Z,36.95
2024-04-18T09:00:06.499Z,36.87
2024-04-18T09:01:18.776Z,37.00
2024-04-18T09:02:24.862Z,37.09
2024-04-18T09:03:31.665Z,36.97
2024-04-18T09:04:41.049Z,36.80
2024-04-18T09:05:46.826Z,36.69
2024-04-18T09:06:55.548Z,36.60
2024-04-18T09:08:01.235Z,36.54
2024-04-18T09:09:16.675Z,36.72
2024-04-18T09:10:25.250Z,36.71
2024-04-18T09:11:34.106Z,36.75
2024-04-18T09:12:40.995Z,36.83
2024-04-18T09:13:50.020Z,36.99
2024-04-18T09:14:55.636Z,37.11
2024-04-18T09:16:04.221Z,37.18
2024-04-18T09:17:18.711Z,37.24
2024-04-18T09:18:29.632Z,37.32
2024-04-18T09:19:35.244Z,37.36
2024-04-18T09:20:44.621Z,37.30
2024-04-18T09:21:50.191Z,37.22
2024-04-18T09:22:59.069Z,37.17
2024-04-18T09:24:04.577Z,37.16
2024-04-18T09:25:13.464Z,37.17
2024-04-18T09:26:19.425Z,37.19
2024-04-18T09:27:27.958Z,37.17
2024-04-18T09:28:33.608Z,37.17
2024-04-18T09:29:42.085Z,37.13
2024-04-18T09:30:48.173Z,37.09
2024-04-18T09:31:57.291Z,37.08
2024-04-18T09:33:07.660Z,37.08
2024-04-18T09:34:19.618Z,37.10
2024-04-18T09:35:25.916Z,37.13
2024-04-18T09:36:34.526Z,37.16
2024-04-18T09:37:46.962Z,37.14
2024-04-18T09:39:02.842Z,37.14
2024-04-18T09:40:12.111Z,37.12
2024-04-18T09:41:22.355Z,37.07
2024-04-18T09:42:43.355Z,37.09
2024-04-18T09:43:58.779Z,37.13
2024-04-18T09:45:07.142Z,37.14
2024-04-18T09:46:16.797Z,37.15
2024-04-18T09:47:22.730Z,37.11
2024-04-18T09:48:32.635Z,37.08
2024-04-18T09:49:41.644Z,37.05
2024-04-18T09:50:47.435Z,37.02
2024-04-18T09:51:56.531Z,36.95
2024-04-18T09:53:02.598Z,36.91
2024-04-18T09:54:12.222Z,36.86
2024-04-18T09:55:21.881Z,36.83
2024-04-18T09:56:31.571Z,36.82
2024-04-18T09:57:37.919Z,36.72
2024-04-18T09:58:47.827Z,36.65
2024-04-18T09:59:54.709Z,36.61
2024-04-18T10:01:00.517Z,36.59
2024-04-18T10:02:10.275Z,36.52
2024-04-18T10:03:18.293Z,36.52
2024-04-18T10:04:29.982Z,36.41
2024-04-18T10:05:35.728Z,36.36
2024-04-18T10:06:48.711Z,36.34
2024-04-18T10:07:56.237Z,36.32
2024-04-18T10:09:08.260Z,36.29
2024-04-18T10:10:14.526Z,36.21
2024-04-18T10:11:24.376Z,36.15
2024-04-18T10:12:34.838Z,36.13
2024-04-18T10:13:43.604Z,36.10
2024-04-18T10:14:49.394Z,36.08
2024-04-18T10:16:08.441Z,36.08
2024-04-18T10:17:25.931Z,35.99
2024-04-18T10:18:41.584Z,36.04
2024-04-18T10:19:50.265Z,36.00
2024-04-18T10:20:57.511Z,35.93
2024-04-18T10:22:17.695Z,35.94
2024-04-18T10:23:31.199Z,35.85
2024-04-18T10:24:40.190Z,35.79
2024-04-18T10:25:46.932Z,35.75
2024-04-18T10:27:04.931Z,35.68
2024-04-18T10:28:20.271Z,35.55
2024-04-18T10:29:29.589Z,35.54
2024-04-18T10:30:36.354Z,35.50
2024-04-18T10:31:45.201Z,35.49
2024-04-18T10:32:51.425Z,35.48
2024-04-18T10:34:00.810Z,35.42
2024-04-18T10:35:09.521Z,35.36
2024-04-18T10:36:20.390Z,35.34
2024-04-18T10:37:26.686Z,35.30
2024-04-18T10:38:36.196Z,35.26
2024-04-18T10:39:43.296Z,35.17
2024-04-18T10:41:05.780Z,35.03
2024-04-18T10:42:11.745Z,34.98
2024-04-18T10:43:20.421Z,34.91
2024-04-18T10:44:29.608Z,34.82
2024-04-18T10:45:35.495Z,34.73
2024-04-18T10:46:41.088Z,34.70
2024-04-18T10:47:51.034Z,34.67
2024-04-18T10:48:57.003Z,34.63
2024-04-18T10:50:06.102Z,34.60
2024-04-18T10:51:14.681Z,34.57
2024-04-18T10:52:23.543Z,34.52
2024-04-18T10:53:29.155Z,34.44
2024-04-18T10:54:37.613Z,34.37
2024-04-18T10:55:44.232Z,34.28
2024-04-18T10:56:52.969Z,34.24
2024-04-18T10:57:58.484Z,34.21
2024-04-18T10:59:06.902Z,34.14
2024-04-18T11:00:17.373Z,34.08
2024-04-18T11:01:26.491Z,34.04
2024-04-18T11:02:33.767Z,34.01
2024-04-18T11:03:42.628Z,33.98
2024-04-18T11:04:48.100Z,33.94
2024-04-18T11:05:53.578Z,33.93
2024-04-18T11:07:04.999Z,33.88
2024-04-18T11:08:11.262Z,33.81
2024-04-18T11:09:18.418Z,33.76
2024-04-18T11:10:27.522Z,33.74
2024-04-18T11:11:35.751Z,33.70
2024-04-18T11:12:44.348Z,33.67
2024-04-18T11:13:52.233Z,33.62
2024-04-18T11:15:01.681Z,33.59
2024-04-18T11:16:07.875Z,33.54
2024-04-18T11:17:16.352Z,33.51
2024-04-18T11:18:24.149Z,33.47
2024-04-18T11:19:29.870Z,33.41
2024-04-18T11:20:38.478Z,33.37
2024-04-18T11:21:44.899Z,33.33
2024-04-18T11:23:01.530Z,33.30
2024-04-18T11:24:14.550Z,33.27
2024-04-18T11:25:23.326Z,33.25
2024-04-18T11:26:33.088Z,33.18
2024-04-18T11:27:42.412Z,33.16
2024-04-18T11:28:51.214Z,33.12
2024-04-18T11:29:59.749Z,33.10
2024-04-18T11:31:05.282Z,33.07
2024-04-18T11:32:15.084Z,33.04
2024-04-18T11:33:24.189Z,33.02
2024-04-18T11:34:32.736Z,33.00
2024-04-18T11:35:38.280Z,32.96
2024-04-18T11:36:46.780Z,32.93
2024-04-18T11:37:55.406Z,32.90
2024-04-18T11:39:07.320Z,32.88
2024-04-18T11:40:13.710Z,32.86
2024-04-18T11:41:20.583Z,32.85
2024-04-18T11:42:29.062Z,32.82
2024-04-18T11:43:34.598Z,32.79
2024-04-18T11:44:44.480Z,32.75
2024-04-18T11:45:50.005Z,32.71
2024-04-18T11:46:58.516Z,32.66
2024-04-18T11:48:04.325Z,32.66
2024-04-18T11:49:12.932Z,32.63
2024-04-18T11:50:18.535Z,32.62
2024-04-18T11:51:27.039Z,32.62
2024-04-18T11:52:32.634Z,32.62
2024-04-18T11:53:44.058Z,32.59
2024-04-18T11:54:49.631Z,32.57
2024-04-18T11:55:59.966Z,32.54
2024-04-18T11:57:06.455Z,32.51
2024-04-18T11:58:12.462Z,32.48
2024-04-18T11:59:22.349Z,32.45
2024-04-18T12:00:28.578Z,32.45
2024-04-18T12:01:37.429Z,32.41
2024-04-18T12:02:43.541Z,32.39
2024-04-18T12:03:52.435Z,32.39
2024-04-18T12:04:58.494Z,32.36
2024-04-18T12:06:07.147Z,32.33
2024-04-18T12:07:13.305Z,32.34
2024-04-18T12:08:19.279Z,32.30
2024-04-18T12:09:30.858Z,32.30
2024-04-18T12:10:36.491Z,32.28
2024-04-18T12:11:44.966Z,32.27
2024-04-18T12:12:51.143Z,32.28
2024-04-18T12:13:59.660Z,32.27
2024-04-18T12:15:05.369Z,32.27
2024-04-18T12:16:14.109Z,32.29
2024-04-18T12:17:19.701Z,32.27
2024-04-18T12:18:28.445Z,32.24
2024-04-18T12:19:34.071Z,32.22
2024-04-18T12:20:44.902Z,32.19
2024-04-18T12:21:50.523Z,32.20
2024-04-18T12:22:59.065Z,32.19
2024-04-18T12:24:04.622Z,32.20
2024-04-18T12:25:13.238Z,32.20
2024-04-18T12:26:21.848Z,32.22
2024-04-18T12:27:27.532Z,32.23
2024-04-18T12:28:39.985Z,32.23
2024-04-18T12:29:49.585Z,32.21
2024-04-18T12:30:58.297Z,32.17
2024-04-18T12:32:04.004Z,32.12
2024-04-18T12:33:09.924Z,32.10
2024-04-18T12:34:18.474Z,32.06
2024-04-18T12:35:24.015Z,32.07
2024-04-18T12:36:32.650Z,32.06
2024-04-18T12:37:38.317Z,32.02
2024-04-18T12:38:47.599Z,32.03
2024-04-18T12:39:54.455Z,32.01
2024-04-18T12:41:06.532Z,32.00
2024-04-18T12:42:12.121Z,31.99
2024-04-18T12:43:19.334Z,31.98
2024-04-18T12:44:30.031Z,31.99
2024-04-18T12:45:37.860Z,31.98
2024-04-18T12:46:47.550Z,31.98
2024-04-18T12:47:58.815Z,31.98
2024-04-18T12:49:07.725Z,31.98
2024-04-18T12:50:13.426Z,31.96
2024-04-18T12:51:19.253Z,31.96
2024-04-18T12:52:28.829Z,31.95
2024-04-18T12:53:40.309Z,31.96
2024-04-18T12:54:49.631Z,31.95
2024-04-18T12:55:55.618Z,31.92
2024-04-18T12:57:07.463Z,31.92
2024-04-18T12:58:13.502Z,31.91
2024-04-18T12:59:19.659Z,31.90
2024-04-18T13:00:28.999Z,31.89
2024-04-18T13:01:35.045Z,31.88
2024-04-18T13:02:40.931Z,31.89
2024-04-18T13:03:51.491Z,31.88
2024-04-18T13:04:57.889Z,31.87
2024-04-18T13:06:06.638Z,31.88
2024-04-18T13:07:12.250Z,31.89
2024-04-18T13:08:21.000Z,31.90
2024-04-18T13:09:26.884Z,31.90
2024-04-18T13:10:35.667Z,31.91
2024-04-18T13:11:41.371Z,31.87
2024-04-18T13:12:53.071Z,31.84
2024-04-18T13:13:59.496Z,31.83
2024-04-18T13:15:08.272Z,31.83
2024-04-18T13:16:14.454Z,31.80
2024-04-18T13:17:23.412Z,31.79
2024-04-18T13:18:29.193Z,31.78
2024-04-18T13:19:37.979Z,31.78
2024-04-18T13:20:44.962Z,31.77
2024-04-18T13:21:56.763Z,31.78
2024-04-18T13:23:03.941Z,31.78
2024-04-18T13:24:15.670Z,31.77
2024-04-18T13:25:21.541Z,31.76
2024-04-18T13:26:30.427Z,31.75
2024-04-18T13:27:39.428Z,31.75
2024-04-18T13:28:51.904Z,31.74
2024-04-18T13:29:57.863Z,31.71
2024-04-18T13:31:06.815Z,31.71
2024-04-18T13:32:12.828Z,31.67
2024-04-18T13:33:21.750Z,31.64
2024-04-18T13:34:27.682Z,31.61
2024-04-18T13:35:33.658Z,31.61
2024-04-18T13:36:42.651Z,31.62
2024-04-18T13:37:48.799Z,31.63
2024-04-18T13:38:58.330Z,31.63
2024-04-18T13:40:05.193Z,31.60
2024-04-18T13:41:14.254Z,31.61
2024-04-18T13:42:20.082Z,31.60
2024-04-18T13:43:28.946Z,31.60
2024-04-18T13:44:37.780Z,31.58
2024-04-18T13:45:43.527Z,31.56
2024-04-18T13:46:52.638Z,31.56
2024-04-18T13:47:58.978Z,31.56
2024-04-18T13:49:08.110Z,31.56
2024-04-18T13:50:14.048Z,31.59
2024-04-18T13:51:23.288Z,31.60
2024-04-18T13:52:29.456Z,31.59
2024-04-18T13:53:38.353Z,31.56
2024-04-18T13:54:44.329Z,31.57
2024-04-18T13:55:51.857Z,31.57
2024-04-18T13:57:03.523Z,31.57
2024-04-18T13:58:09.441Z,31.57
2024-04-18T13:59:18.366Z,31.57
2024-04-18T14:00:27.498Z,31.57
2024-04-18T14:01:36.736Z,31.58
2024-04-18T14:02:43.715Z,31.57
2024-04-18T14:03:52.849Z,31.57
2024-04-18T14:04:58.904Z,31.56
2024-04-18T14:06:05.072Z,31.54
2024-04-18T14:07:14.132Z,31.55
2024-04-18T14:08:20.777Z,31.56
2024-04-18T14:09:44.043Z,31.56
2024-04-18T14:10:50.153Z,31.55
2024-04-18T14:11:59.555Z,31.54
2024-04-18T14:13:05.604Z,31.54
2024-04-18T14:14:12.092Z,31.56
2024-04-18T14:15:30.925Z,31.56
2024-04-18T14:16:58.028Z,31.55
2024-04-18T14:18:21.738Z,31.55
2024-04-18T14:19:27.693Z,31.52
2024-04-18T14:20:38.373Z,31.52
2024-04-18T14:21:44.429Z,31.52
2024-04-18T14:22:53.348Z,31.52
2024-04-18T14:23:59.370Z,31.50
2024-04-18T14:25:08.361Z,31.50
2024-04-18T14:26:15.876Z,31.51
2024-04-18T14:27:25.869Z,31.50
2024-04-18T14:28:33.508Z,31.49
2024-04-18T14:29:43.028Z,31.50
2024-04-18T14:30:49.193Z,31.49
2024-04-18T14:32:02.409Z,31.48
2024-04-18T14:33:09.338Z,31.48
2024-04-18T14:34:18.523Z,31.47
2024-04-18T14:35:24.653Z,31.47